Terminal Aerodrome Forecast
Issued by NWS

Home | Current Version | Previous Version | Text Only | Print | Product List | Glossary Off
Versions: 1 2 3 4 5 6 7 8 9 10 11 12 13 14 15 16

000
FTUS43 KICT 260522
TAFRSL
TAF
KRSL 260522Z 2606/2706 10006KT P6SM SCT012 BKN035
     FM260800 11010KT P6SM SCT009 BKN018
      TEMPO 2610/2614 6SM BR OVC007
     FM261600 15015G23KT P6SM SCT012 BKN040
     FM262100 14015G23KT P6SM VCTS BKN040CB=

USA.gov is the U.S. government's official web portal to all federal, state and local government web resources and services.